Time;durP1;ratioP1;P1;durP2;ratioP2;P2;SDS_P1;SDS_P2;PMS_P1;PMS_P2;Temp;Humidity;BMP_temperature;BMP_pressure;BME280_temperature;BME280_humidity;BME280_pressure;Samples;Min_cycle;Max_cycle;Signal;HPM_P1;HPM_P2
2022/12/09 00:01:55;;;;;;;51.17;17.53;;;;;;;-141.97;100.00;47920.81;5114338;28;20167;-84
2022/12/09 00:04:21;;;;;;;53.37;18.40;;;;;;;-141.97;100.00;47905.44;5114404;28;20167;-83
2022/12/09 00:06:46;;;;;;;55.80;17.80;;;;;;;-141.97;100.00;47903.50;5114519;28;20171;-82
2022/12/09 00:09:14;;;;;;;53.67;18.47;;;;;;;-141.97;100.00;47809.31;5114190;28;20250;-82
2022/12/09 00:11:40;;;;;;;48.50;16.40;;;;;;;-141.97;100.00;47880.44;5105757;27;20534;-82
2022/12/09 00:14:05;;;;;;;51.57;18.83;;;;;;;-141.97;100.00;47907.34;5093975;28;20180;-83
2022/12/09 00:16:30;;;;;;;52.73;17.40;;;;;;;-141.97;100.00;47920.81;5093745;28;20318;-82
2022/12/09 00:18:56;;;;;;;51.90;18.70;;;;;;;-141.97;100.00;47911.19;5093845;28;20198;-82
2022/12/09 00:21:31;;;;;;;51.33;17.90;;;;;;;-141.97;100.00;47955.41;5093684;28;20229;-83
2022/12/09 00:23:58;;;;;;;48.10;18.00;;;;;;;-141.97;100.00;47817.00;5093569;28;20674;-82
2022/12/09 00:26:25;;;;;;;56.60;19.33;;;;;;;-141.97;100.00;47888.13;5093160;28;20196;-83
2022/12/09 00:28:51;;;;;;;47.57;17.83;;;;;;;-141.97;100.00;47780.47;5093552;28;20168;-82
2022/12/09 00:31:22;;;;;;;48.07;17.20;;;;;;;-141.97;100.00;47907.34;5093316;28;20165;-83
2022/12/09 00:33:47;;;;;;;49.00;17.70;;;;;;;-141.97;100.00;47895.81;5093362;28;20176;-82
2022/12/09 00:36:16;;;;;;;49.07;17.70;;;;;;;-141.97;100.00;47884.28;5093399;28;20223;-83
2022/12/09 00:38:42;;;;;;;48.70;18.17;;;;;;;-141.97;100.00;47895.81;5092215;28;20179;-82
2022/12/09 00:41:08;;;;;;;49.67;17.60;;;;;;;-141.97;100.00;47913.13;5099397;28;20635;-82
2022/12/09 00:43:34;;;;;;;51.10;17.47;;;;;;;-141.97;100.00;47840.06;5113561;28;20187;-83
2022/12/09 00:46:00;;;;;;;50.77;17.90;;;;;;;-141.97;100.00;47893.91;5113788;28;20235;-82
2022/12/09 00:48:27;;;;;;;49.00;16.87;;;;;;;-141.97;100.00;47872.75;5113569;28;20182;-83
2022/12/09 00:50:52;;;;;;;51.10;17.57;;;;;;;-141.97;100.00;47915.03;5113622;28;20174;-84
2022/12/09 00:53:18;;;;;;;49.37;18.10;;;;;;;-141.97;100.00;47895.81;5113591;28;20195;-82
2022/12/09 00:55:44;;;;;;;49.87;17.90;;;;;;;-141.97;100.00;47874.69;5113799;28;20203;-81
2022/12/09 00:58:11;;;;;;;48.87;16.70;;;;;;;-141.97;100.00;47893.91;5112589;28;20174;-81
2022/12/09 01:00:36;;;;;;;45.17;17.13;;;;;;;-141.97;100.00;47899.66;5113359;28;20195;-82
2022/12/09 01:03:02;;;;;;;46.70;16.63;;;;;;;-141.97;100.00;47918.88;5113420;28;20175;-82
2022/12/09 01:05:27;;;;;;;42.30;15.83;;;;;;;-141.97;100.00;47951.56;5113134;28;20225;-83
2022/12/09 01:07:53;;;;;;;48.50;16.77;;;;;;;-141.97;100.00;47886.22;5116724;28;20175;-81
2022/12/09 01:10:18;;;;;;;44.27;15.63;;;;;;;-141.97;100.00;47934.25;5116619;28;20178;-83
2022/12/09 01:12:44;;;;;;;45.73;17.20;;;;;;;-141.97;100.00;47909.28;5097229;28;20178;-82
2022/12/09 01:15:10;;;;;;;45.90;15.57;;;;;;;-141.97;100.00;47920.81;5106554;28;20228;-81
2022/12/09 01:17:36;;;;;;;45.53;15.97;;;;;;;-141.97;100.00;47940.03;5099299;28;20164;-82
2022/12/09 01:20:03;;;;;;;42.87;16.57;;;;;;;-141.97;100.00;47926.56;5112257;28;20187;-82
2022/12/09 01:22:29;;;;;;;44.20;15.37;;;;;;;-141.97;100.00;47882.38;5100704;28;20225;-82
2022/12/09 01:24:54;;;;;;;43.03;15.87;;;;;;;-141.97;100.00;47815.09;5092582;28;20168;-83
2022/12/09 01:27:20;;;;;;;42.53;15.37;;;;;;;-141.97;100.00;47865.06;5092731;28;20639;-83
2022/12/09 01:29:46;;;;;;;38.40;14.93;;;;;;;-141.97;100.00;47978.47;5092982;28;20347;-83
2022/12/09 01:32:11;;;;;;;38.20;14.53;;;;;;;-141.97;100.00;47770.88;5092696;28;20213;-82
2022/12/09 01:34:37;;;;;;;38.43;14.83;;;;;;;-141.97;100.00;47857.38;5092170;28;20283;-82
2022/12/09 01:37:02;;;;;;;37.97;13.90;;;;;;;-141.97;100.00;47909.28;5092382;28;20276;-82
2022/12/09 01:39:27;;;;;;;38.07;13.83;;;;;;;-141.97;100.00;47982.31;5092312;28;20233;-82
2022/12/09 01:41:53;;;;;;;37.50;14.07;;;;;;;-141.97;100.00;47884.28;5104010;28;20258;-82
2022/12/09 01:44:24;;;;;;;35.27;13.83;;;;;;;-141.97;100.00;47903.50;5113000;28;20159;-83
2022/12/09 01:46:54;;;;;;;34.23;13.80;;;;;;;-141.97;100.00;47897.75;5113034;28;20159;-82
2022/12/09 01:49:41;;;;;;;30.63;12.90;;;;;;;-141.97;100.00;47922.72;5112491;28;20672;-82
2022/12/09 01:52:07;;;;;;;35.13;13.53;;;;;;;-141.97;100.00;47907.34;5112528;28;20250;-83
2022/12/09 01:54:33;;;;;;;36.40;13.30;;;;;;;-141.97;100.00;47884.28;5112310;28;20612;-82
2022/12/09 01:56:58;;;;;;;32.53;13.10;;;;;;;-141.97;100.00;47941.94;5112458;28;20159;-83
2022/12/09 01:59:25;;;;;;;35.97;13.53;;;;;;;-141.97;100.00;47945.81;5115374;28;20164;-83
2022/12/09 02:01:55;;;;;;;36.47;13.97;;;;;;;-141.97;100.00;47907.34;5116870;28;20179;-83
2022/12/09 02:04:21;;;;;;;31.60;13.03;;;;;;;-141.97;100.00;47803.56;5111096;28;20250;-83
2022/12/09 02:06:46;;;;;;;32.07;12.97;;;;;;;-141.97;100.00;47911.19;5111610;28;20721;-83
2022/12/09 02:09:12;;;;;;;32.60;13.57;;;;;;;-141.97;100.00;47907.34;5110827;28;20646;-83
2022/12/09 02:11:57;;;;;;;32.00;13.10;;;;;;;-141.97;100.00;47868.91;5112253;28;20155;-82
2022/12/09 02:14:34;;;;;;;31.67;12.80;;;;;;;-141.97;100.00;47957.34;5112182;28;20171;-81
2022/12/09 02:17:18;;;;;;;28.47;12.47;;;;;;;-141.97;100.00;47903.50;5112309;28;20163;-81
2022/12/09 02:20:01;;;;;;;34.10;14.60;;;;;;;-141.97;100.00;47911.19;5095493;28;20180;-82
2022/12/09 02:22:43;;;;;;;36.20;14.17;;;;;;;-141.97;100.00;47930.41;5091638;28;20186;-82
2022/12/09 02:25:29;;;;;;;31.87;13.60;;;;;;;-141.97;100.00;47920.81;5091431;28;20697;-82
2022/12/09 02:27:57;;;;;;;30.10;12.13;;;;;;;-141.97;100.00;47899.66;5091449;28;20168;-83
2022/12/09 02:30:44;;;;;;;30.30;12.50;;;;;;;-141.97;99.53;47882.38;5092052;28;20167;-82
2022/12/09 02:33:24;;;;;;;31.47;12.50;;;;;;;-141.97;100.00;47915.03;5097390;28;20910;-81
2022/12/09 02:35:55;;;;;;;29.40;12.50;;;;;;;-141.97;100.00;47922.72;5111708;28;20260;-82
2022/12/09 02:38:30;;;;;;;30.53;12.13;;;;;;;-141.97;100.00;47905.44;5111968;28;20164;-82
2022/12/09 02:41:02;;;;;;;30.60;13.23;;;;;;;-141.97;100.00;47941.94;5111545;28;20189;-82
2022/12/09 02:43:33;;;;;;;30.13;12.10;;;;;;;-141.97;100.00;47899.66;5110461;28;20601;-81
2022/12/09 02:45:59;;;;;;;30.23;12.80;;;;;;;-141.97;100.00;47980.41;5111431;28;20217;-82
2022/12/09 02:48:35;;;;;;;32.47;13.27;;;;;;;-141.97;100.00;47913.13;5111813;28;20162;-82
2022/12/09 02:51:08;;;;;;;30.97;13.10;;;;;;;-141.97;100.00;47886.22;5111360;28;20198;-82
2022/12/09 02:53:37;;;;;;;30.23;13.07;;;;;;;-141.97;100.00;47853.53;5111611;28;20195;-83
2022/12/09 02:56:05;;;;;;;28.67;12.07;;;;;;;-141.97;100.00;47924.66;5111395;28;20277;-82
2022/12/09 02:58:30;;;;;;;29.93;12.30;;;;;;;-141.97;100.00;47897.75;5111189;28;20168;-82
2022/12/09 03:00:57;;;;;;;32.40;13.33;;;;;;;-141.97;100.00;47861.22;5111654;28;20171;-81
2022/12/09 03:03:23;;;;;;;28.83;12.77;;;;;;;-141.97;100.00;47870.81;5109804;28;20250;-82
2022/12/09 03:06:03;;;;;;;30.67;12.37;;;;;;;-141.97;100.00;47882.38;5084508;28;20259;-83
2022/12/09 03:08:38;;;;;;;32.73;13.00;;;;;;;-141.97;100.00;47901.59;5090763;28;20227;-83
2022/12/09 03:11:10;;;;;;;34.57;12.27;;;;;;;-141.97;100.00;47880.44;5090878;28;20196;-81
2022/12/09 03:13:47;;;;;;;33.07;11.90;;;;;;;-141.97;100.00;47891.97;5089318;28;20648;-81
2022/12/09 03:16:24;;;;;;;33.10;12.60;;;;;;;-141.97;100.00;47905.44;5090614;28;20199;-81
2022/12/09 03:19:02;;;;;;;33.43;13.13;;;;;;;-141.97;100.00;47905.44;5091399;28;20250;-81
2022/12/09 03:21:31;;;;;;;29.53;12.30;;;;;;;-141.97;100.00;47922.72;5091495;28;20191;-81
2022/12/09 03:23:58;;;;;;;30.13;12.10;;;;;;;-141.97;100.00;47888.13;5095292;28;20164;-81
2022/12/09 03:26:29;;;;;;;30.30;11.70;;;;;;;-141.97;100.00;47930.41;5094921;28;20171;-80
2022/12/09 03:28:56;;;;;;;29.57;11.67;;;;;;;-141.97;100.00;47907.34;5095112;28;20169;-81
2022/12/09 03:31:25;;;;;;;31.50;12.13;;;;;;;-141.97;100.00;47961.19;5094667;28;20174;-81
2022/12/09 03:33:56;;;;;;;31.90;12.37;;;;;;;-141.97;100.00;47922.72;5108702;28;20181;-81
2022/12/09 03:36:25;;;;;;;32.23;12.53;;;;;;;-141.97;100.00;47893.91;5114820;28;20655;-81
2022/12/09 03:38:52;;;;;;;35.47;12.90;;;;;;;-141.97;100.00;47880.44;5115045;28;20698;-82
2022/12/09 03:41:27;;;;;;;38.37;14.80;;;;;;;-141.97;100.00;47884.28;5114702;28;20202;-81
2022/12/09 03:43:58;;;;;;;41.10;14.80;;;;;;;-141.97;100.00;47895.81;5115126;28;20178;-81
2022/12/09 03:46:24;;;;;;;32.87;13.20;;;;;;;-141.97;100.00;47915.03;5114554;28;20595;-81
2022/12/09 03:48:50;;;;;;;37.23;14.77;;;;;;;-141.97;100.00;47878.53;5114620;28;20175;-81
2022/12/09 03:51:29;;;;;;;40.37;15.27;;;;;;;-141.97;100.00;47865.06;5114400;28;20155;-82
2022/12/09 03:54:13;;;;;;;43.87;15.37;;;;;;;-141.97;100.00;47888.13;5114539;28;20164;-81
2022/12/09 03:56:42;;;;;;;36.90;13.87;;;;;;;-141.97;100.00;47882.38;5114317;28;20199;-82
2022/12/09 03:59:12;;;;;;;35.47;14.00;;;;;;;-141.97;100.00;47909.28;5114570;28;20164;-83
2022/12/09 04:01:40;;;;;;;40.27;15.73;;;;;;;-141.97;100.00;47888.13;5114746;28;20179;-83
2022/12/09 04:04:07;;;;;;;41.73;15.80;;;;;;;-141.97;100.00;47901.59;5095145;28;20176;-84
2022/12/09 04:06:32;;;;;;;37.67;16.70;;;;;;;-141.97;100.00;47961.19;5094221;28;20164;-82
2022/12/09 04:08:58;;;;;;;35.43;16.00;;;;;;;-141.97;100.00;47945.81;5094402;28;20175;-82
2022/12/09 04:11:23;;;;;;;33.77;14.23;;;;;;;-141.97;100.00;47922.72;5093688;28;20176;-81
2022/12/09 04:13:48;;;;;;;28.87;12.30;;;;;;;-141.97;100.00;47803.56;5093430;28;20168;-81
2022/12/09 04:16:14;;;;;;;32.40;12.10;;;;;;;-141.97;100.00;47932.34;5103270;28;20199;-83
2022/12/09 04:18:39;;;;;;;32.57;12.93;;;;;;;-141.97;100.00;47830.47;5101586;28;20550;-82
2022/12/09 04:21:07;;;;;;;28.07;11.60;;;;;;;-141.97;100.00;47907.34;5093422;28;20156;-82
2022/12/09 04:23:32;;;;;;;27.50;11.90;;;;;;;-141.97;100.00;47916.97;5094053;28;20583;-82
2022/12/09 04:25:57;;;;;;;32.53;11.43;;;;;;;-141.97;100.00;47886.22;5093751;28;20173;-81
2022/12/09 04:28:23;;;;;;;28.27;11.70;;;;;;;-141.97;100.00;47780.47;5093496;28;20221;-81
2022/12/09 04:30:48;;;;;;;29.93;11.97;;;;;;;-141.97;100.00;47968.88;5093595;28;20168;-82
2022/12/09 04:33:14;;;;;;;30.47;12.07;;;;;;;-141.97;100.00;47826.63;5103716;28;20233;-82
2022/12/09 04:35:39;;;;;;;31.07;12.00;;;;;;;-141.97;100.00;47884.28;5113299;28;20313;-82
2022/12/09 04:38:04;;;;;;;32.47;13.13;;;;;;;-141.97;100.00;47959.25;5102337;28;20289;-82
2022/12/09 04:40:30;;;;;;;44.93;21.50;;;;;;;-141.97;100.00;47930.41;5096614;28;20278;-80
2022/12/09 04:42:56;;;;;;;46.60;20.30;;;;;;;-141.97;100.00;47886.22;5116645;28;20160;-83
2022/12/09 04:45:22;;;;;;;42.00;15.80;;;;;;;-141.97;100.00;47926.56;5115193;28;20166;-82
2022/12/09 04:47:47;;;;;;;43.63;19.57;;;;;;;-141.97;100.00;47897.75;5114386;28;20183;-84
2022/12/09 04:50:12;;;;;;;40.07;17.83;;;;;;;-141.97;100.00;47924.66;5101214;28;20168;-83
2022/12/09 04:52:38;;;;;;;57.13;23.70;;;;;;;-141.97;100.00;47995.78;5093192;28;20164;-82
2022/12/09 04:55:04;;;;;;;42.83;19.77;;;;;;;-141.97;99.70;47895.81;5092900;28;20195;-82
2022/12/09 04:57:29;;;;;;;35.33;14.20;;;;;;;-141.97;99.79;47897.75;5092749;28;20164;-83
2022/12/09 04:59:55;;;;;;;39.70;16.63;;;;;;;-141.97;100.00;47913.13;5092888;28;20556;-81
2022/12/09 05:02:20;;;;;;;39.30;18.00;;;;;;;-141.97;99.93;47872.75;5096094;28;20251;-82
2022/12/09 05:04:46;;;;;;;40.03;17.87;;;;;;;-141.97;100.00;47926.56;5113234;28;20178;-82
2022/12/09 05:07:12;;;;;;;39.70;18.20;;;;;;;-141.97;99.96;47888.13;5111903;28;20225;-81
2022/12/09 05:09:37;;;;;;;32.77;15.80;;;;;;;-141.97;99.15;47938.09;5113195;28;20160;-82
2022/12/09 05:12:03;;;;;;;34.93;16.73;;;;;;;-141.97;99.37;47899.66;5112736;28;20163;-82
2022/12/09 05:14:29;;;;;;;52.00;24.63;;;;;;;-141.97;99.26;47857.38;5111371;28;20176;-81
2022/12/09 05:16:54;;;;;;;57.37;26.50;;;;;;;-141.97;98.88;47926.56;5112636;28;20206;-82
2022/12/09 05:19:19;;;;;;;39.73;16.93;;;;;;;-141.97;100.00;47865.06;5113072;28;20539;-82
2022/12/09 05:21:45;;;;;;;40.40;15.83;;;;;;;-141.97;100.00;47907.34;5112709;28;20224;-82
2022/12/09 05:24:10;;;;;;;44.17;19.83;;;;;;;-141.97;100.00;47915.03;5112734;28;20164;-82
2022/12/09 05:26:37;;;;;;;37.23;15.53;;;;;;;-141.97;100.00;47922.72;5113214;27;20635;-82
2022/12/09 05:29:03;;;;;;;29.13;11.73;;;;;;;-141.97;100.00;47888.13;5061950;28;20221;-83
2022/12/09 05:31:28;;;;;;;28.20;11.77;;;;;;;-141.97;100.00;47926.56;5049206;28;20264;-83
2022/12/09 05:33:54;;;;;;;27.13;11.13;;;;;;;-141.97;100.00;47924.66;5050025;28;20655;-82
2022/12/09 05:36:28;;;;;;;31.57;12.27;;;;;;;-141.97;100.00;47909.28;5048893;28;20350;-81
2022/12/09 05:38:54;;;;;;;30.20;11.90;;;;;;;-141.97;100.00;47905.44;5049618;28;20284;-80
2022/12/09 05:41:21;;;;;;;31.50;12.13;;;;;;;-141.97;100.00;47978.47;5064307;28;20660;-81
2022/12/09 05:43:46;;;;;;;28.90;11.67;;;;;;;-141.97;100.00;47872.75;5068159;28;20183;-82
2022/12/09 05:46:12;;;;;;;35.90;13.07;;;;;;;-141.97;100.00;47870.81;5069705;28;20630;-83
2022/12/09 05:48:38;;;;;;;31.57;12.13;;;;;;;-141.97;99.95;47893.91;5070311;28;20177;-81
2022/12/09 05:51:15;;;;;;;27.50;11.50;;;;;;;-141.97;100.00;47905.44;5055073;28;20247;-82
2022/12/09 05:53:41;;;;;;;34.53;12.73;;;;;;;-141.97;99.93;47903.50;5049914;28;20210;-81
2022/12/09 05:56:06;;;;;;;34.90;13.90;;;;;;;-141.97;99.63;47913.13;5065409;28;20212;-81
2022/12/09 05:58:33;;;;;;;56.87;26.40;;;;;;;-141.97;100.00;47843.91;5049734;28;20223;-81
2022/12/09 06:01:03;;;;;;;58.07;24.80;;;;;;;-141.97;100.00;47899.66;5049129;28;20880;-81
2022/12/09 06:03:29;;;;;;;89.73;43.13;;;;;;;-141.97;100.00;47899.66;5050570;28;20212;-82
2022/12/09 06:05:54;;;;;;;211.60;95.97;;;;;;;-141.97;100.00;47901.59;5050320;28;20220;-82
2022/12/09 06:08:19;;;;;;;146.00;65.07;;;;;;;-141.97;100.00;47965.03;5050497;28;20239;-82
2022/12/09 06:10:45;;;;;;;242.63;111.63;;;;;;;-141.97;100.00;47911.19;5051983;28;20212;-82
2022/12/09 06:13:10;;;;;;;204.17;96.97;;;;;;;-141.97;100.00;47934.25;5052389;28;20181;-82
2022/12/09 06:15:36;;;;;;;177.57;87.60;;;;;;;-141.97;100.00;47874.69;5055041;28;20772;-82
2022/12/09 06:18:02;;;;;;;115.17;53.87;;;;;;;-141.97;99.44;47915.03;5050082;28;20264;-82
2022/12/09 06:20:27;;;;;;;71.83;31.90;;;;;;;-141.97;99.34;47886.22;5048730;28;20258;-81
2022/12/09 06:22:52;;;;;;;47.87;20.33;;;;;;;-141.97;99.99;47903.50;5049389;28;20199;-82
2022/12/09 06:25:18;;;;;;;46.13;19.27;;;;;;;-141.97;100.00;47915.03;5049222;28;20235;-82
2022/12/09 06:27:43;;;;;;;59.27;22.93;;;;;;;-141.97;100.00;47865.06;5049970;28;20645;-82
2022/12/09 06:30:09;;;;;;;57.10;24.40;;;;;;;-141.97;100.00;47922.72;5038659;28;20239;-82
2022/12/09 06:32:34;;;;;;;50.63;20.80;;;;;;;-141.97;100.00;47926.56;5049565;28;20180;-82
2022/12/09 06:34:59;;;;;;;45.87;18.80;;;;;;;-141.97;100.00;47926.56;5064934;28;20303;-82
2022/12/09 06:37:25;;;;;;;38.17;15.23;;;;;;;-141.97;100.00;47911.19;5069205;28;20176;-82
2022/12/09 06:39:50;;;;;;;44.57;17.17;;;;;;;-141.97;100.00;47903.50;5066706;28;20215;-82
2022/12/09 06:42:16;;;;;;;75.03;31.83;;;;;;;-141.97;100.00;47899.66;5049013;28;20272;-81
2022/12/09 06:44:41;;;;;;;46.23;19.43;;;;;;;-141.97;100.00;47915.03;5048971;28;20185;-81
2022/12/09 06:47:07;;;;;;;34.90;13.47;;;;;;;-141.97;100.00;47903.50;5048728;28;20189;-81
2022/12/09 06:49:32;;;;;;;31.43;12.27;;;;;;;-141.97;100.00;47895.81;5048465;28;20185;-81
2022/12/09 06:51:58;;;;;;;34.00;12.67;;;;;;;-141.97;100.00;47924.66;5048130;28;20920;-82
2022/12/09 06:54:23;;;;;;;40.20;15.30;;;;;;;-141.97;100.00;47947.72;5048635;28;20185;-81
2022/12/09 06:56:49;;;;;;;33.93;13.87;;;;;;;-141.97;100.00;47840.06;5049512;28;20209;-83
2022/12/09 06:59:14;;;;;;;35.27;13.67;;;;;;;-141.97;99.83;47824.69;5053026;28;20192;-84
2022/12/09 07:01:40;;;;;;;40.97;13.20;;;;;;;-141.97;98.82;47918.88;5052170;28;20181;-83
2022/12/09 07:04:05;;;;;;;31.17;13.80;;;;;;;-141.97;99.38;47895.81;5053424;28;20228;-83
2022/12/09 07:06:37;;;;;;;33.97;13.17;;;;;;;-141.97;100.00;47926.56;5052912;28;20188;-83
2022/12/09 07:09:15;;;;;;;34.97;14.87;;;;;;;-141.97;100.00;47865.06;5052710;28;20177;-83
2022/12/09 07:11:41;;;;;;;34.03;12.07;;;;;;;-141.97;100.00;47884.28;5050707;28;20366;-85
2022/12/09 07:14:08;;;;;;;32.93;12.03;;;;;;;-141.97;100.00;47893.91;5053003;28;20181;-83
2022/12/09 07:16:34;;;;;;;30.90;12.70;;;;;;;-141.97;99.76;47922.72;5053317;28;20589;-81
2022/12/09 07:19:00;;;;;;;36.83;14.00;;;;;;;-141.97;99.03;47978.47;5060785;28;20188;-83
2022/12/09 07:21:27;;;;;;;36.43;14.50;;;;;;;-141.97;98.43;47930.41;5054574;28;20561;-81
2022/12/09 07:23:53;;;;;;;34.10;13.27;;;;;;;-141.97;97.98;47909.28;5052806;28;20181;-82
2022/12/09 07:26:19;;;;;;;33.07;12.10;;;;;;;-141.97;97.09;47893.91;5051928;28;20235;-82
2022/12/09 07:28:49;;;;;;;30.57;11.90;;;;;;;-141.97;96.86;47878.53;5039474;28;20307;-81
2022/12/09 07:31:23;;;;;;;34.50;14.23;;;;;;;-141.97;97.43;47872.75;5051332;28;20184;-81
2022/12/09 07:33:49;;;;;;;77.90;24.37;;;;;;;-141.97;96.28;47915.03;5033372;28;20269;-81
2022/12/09 07:36:15;;;;;;;40.63;15.60;;;;;;;-141.97;97.68;47932.34;5031722;28;20240;-81
2022/12/09 07:38:41;;;;;;;51.20;20.67;;;;;;;-141.97;98.31;47897.75;5031694;28;20190;-81
2022/12/09 07:41:08;;;;;;;37.57;15.37;;;;;;;-141.97;97.13;47922.72;5031023;28;20194;-81
2022/12/09 07:43:35;;;;;;;35.67;14.43;;;;;;;-141.97;96.35;47911.19;5031636;28;20862;-81
2022/12/09 07:46:07;;;;;;;49.87;21.77;;;;;;;-141.97;96.81;47922.72;5031090;28;20182;-81
2022/12/09 07:48:32;;;;;;;107.57;49.97;;;;;;;-141.97;96.85;47901.59;5030748;28;20571;-82
2022/12/09 07:51:02;;;;;;;55.13;26.60;;;;;;;-141.97;96.32;47957.34;5030486;28;20181;-81
2022/12/09 07:53:28;;;;;;;45.33;19.80;;;;;;;-141.97;95.57;47938.09;5031093;28;20213;-82
2022/12/09 07:55:54;;;;;;;41.23;16.03;;;;;;;-141.97;95.67;47911.19;5030817;28;20248;-82
2022/12/09 07:58:19;;;;;;;38.83;16.00;;;;;;;-141.97;96.32;47922.72;5032542;28;20247;-82
2022/12/09 08:00:45;;;;;;;38.83;14.50;;;;;;;-141.97;96.15;47888.13;5031308;28;20903;-82
2022/12/09 08:03:13;;;;;;;36.53;13.03;;;;;;;-141.97;96.21;47928.50;5029995;28;20277;-82
2022/12/09 08:05:52;;;;;;;48.40;18.77;;;;;;;-141.97;96.26;47893.91;5031307;28;20339;-82
2022/12/09 08:08:17;;;;;;;42.83;17.97;;;;;;;-141.97;97.62;47907.34;5031025;28;20182;-81
2022/12/09 08:10:43;;;;;;;56.47;20.97;;;;;;;-141.97;98.48;47903.50;5030935;28;20189;-83
2022/12/09 08:13:09;;;;;;;86.03;37.57;;;;;;;-141.97;99.24;47886.22;5031261;28;20186;-83
2022/12/09 08:15:34;;;;;;;42.47;17.07;;;;;;;-141.97;98.83;47918.88;5030878;28;20215;-81
2022/12/09 08:18:00;;;;;;;36.13;13.93;;;;;;;-141.97;97.94;47945.81;5031535;28;20290;-81
2022/12/09 08:20:26;;;;;;;51.10;23.40;;;;;;;-141.97;96.59;47897.75;5030112;28;20676;-82
2022/12/09 08:22:52;;;;;;;56.13;25.20;;;;;;;-141.97;96.52;47899.66;5029616;28;20182;-81
2022/12/09 08:25:17;;;;;;;54.87;26.53;;;;;;;-141.97;96.88;47903.50;5031163;28;20182;-81
2022/12/09 08:27:42;;;;;;;63.60;32.43;;;;;;;-141.97;96.53;47903.50;5030328;28;20186;-81
2022/12/09 08:30:08;;;;;;;52.40;23.53;;;;;;;-141.97;96.52;47893.91;5035753;28;20236;-80
2022/12/09 08:32:33;;;;;;;47.63;20.23;;;;;;;-141.97;95.97;47897.75;5051023;28;20916;-81
2022/12/09 08:34:59;;;;;;;44.03;19.93;;;;;;;-141.97;95.76;47878.53;5049922;28;20279;-80
2022/12/09 08:37:24;;;;;;;52.23;23.07;;;;;;;-141.97;95.62;47907.34;5050853;28;20556;-81
2022/12/09 08:39:50;;;;;;;64.50;30.60;;;;;;;-141.97;94.84;47934.25;5051365;28;20192;-81
2022/12/09 08:42:15;;;;;;;56.13;28.50;;;;;;;-141.97;94.24;47922.72;5050173;28;20207;-81
2022/12/09 08:44:40;;;;;;;44.60;20.87;;;;;;;-141.97;94.82;47980.41;5051974;28;20590;-82
2022/12/09 08:47:06;;;;;;;50.33;24.93;;;;;;;-141.97;94.74;47930.41;5051192;28;20193;-81
2022/12/09 08:49:31;;;;;;;47.70;19.47;;;;;;;-141.97;96.20;47891.97;5050161;28;20177;-81
2022/12/09 08:51:57;;;;;;;47.57;22.17;;;;;;;-141.97;96.72;47880.44;5051537;28;20173;-82
2022/12/09 08:54:22;;;;;;;45.17;20.60;;;;;;;-141.97;96.63;47920.81;5051271;28;20180;-81
2022/12/09 08:56:50;;;;;;;56.53;24.93;;;;;;;-141.97;95.64;47926.56;5051032;28;20213;-82
2022/12/09 08:59:16;;;;;;;49.90;21.97;;;;;;;-141.97;95.00;47930.41;5050659;28;20243;-81
2022/12/09 09:01:42;;;;;;;48.20;19.90;;;;;;;-141.97;95.68;48034.22;5050129;28;20197;-81
2022/12/09 09:04:14;;;;;;;42.13;18.77;;;;;;;-141.97;95.65;47924.66;5056111;28;20255;-81
2022/12/09 09:06:42;;;;;;;46.13;20.83;;;;;;;-141.97;95.16;47913.13;5070343;28;20644;-81
2022/12/09 09:09:10;;;;;;;53.10;23.40;;;;;;;-141.97;94.22;47907.34;5070481;28;20528;-81
2022/12/09 09:11:36;;;;;;;39.93;16.23;;;;;;;-141.97;93.53;47907.34;5058187;28;20204;-83
2022/12/09 09:14:06;;;;;;;45.77;15.77;;;;;;;-141.97;95.28;47924.66;5050325;28;20177;-81
2022/12/09 09:16:32;;;;;;;38.97;16.70;;;;;;;-141.97;95.04;47901.59;5050141;28;20212;-81
2022/12/09 09:18:59;;;;;;;34.03;15.67;;;;;;;-141.97;95.45;47911.19;5049784;28;20180;-81
2022/12/09 09:21:25;;;;;;;39.20;18.00;;;;;;;-141.97;96.10;47928.50;5049603;28;20188;-81
2022/12/09 09:23:51;;;;;;;36.80;15.17;;;;;;;-141.97;95.74;47868.91;5049830;28;20192;-81
2022/12/09 09:26:19;;;;;;;37.23;15.07;;;;;;;-141.97;94.73;47913.13;5050057;28;20501;-80
2022/12/09 09:28:45;;;;;;;38.20;16.40;;;;;;;-141.97;94.29;47872.75;5036161;28;20177;-81
2022/12/09 09:31:13;;;;;;;35.97;15.60;;;;;;;-141.97;93.81;47861.22;5029093;28;20569;-81
2022/12/09 09:33:40;;;;;;;38.40;16.43;;;;;;;-141.97;93.12;47891.97;5033018;28;20182;-81
2022/12/09 09:36:07;;;;;;;44.73;18.73;;;;;;;-141.97;92.62;47913.13;5031914;28;20249;-81
2022/12/09 09:38:34;;;;;;;51.23;22.80;;;;;;;-141.97;92.18;47911.19;5031670;28;20312;-82
2022/12/09 09:41:00;;;;;;;51.07;20.30;;;;;;;-141.97;92.29;47895.81;5030315;28;20182;-82
2022/12/09 09:43:35;;;;;;;39.97;17.40;;;;;;;-141.97;91.07;47918.88;5031463;28;20182;-81
2022/12/09 09:46:02;;;;;;;46.27;18.57;;;;;;;-141.97;90.26;47893.91;5031725;28;20213;-81
2022/12/09 09:48:31;;;;;;;42.13;17.13;;;;;;;-141.97;90.08;47901.59;5032288;28;20190;-80
2022/12/09 09:51:05;;;;;;;41.80;16.37;;;;;;;-141.97;89.78;47911.19;5032137;28;20241;-80
2022/12/09 09:53:33;;;;;;;59.20;26.33;;;;;;;-141.97;90.23;47924.66;5045118;28;20190;-80
2022/12/09 09:56:18;;;;;;;52.77;25.27;;;;;;;-141.97;90.25;47884.28;5054325;28;20217;-81
2022/12/09 09:58:50;;;;;;;43.63;19.13;;;;;;;-141.97;93.52;47890.06;5040565;28;20178;-82
2022/12/09 10:01:17;;;;;;;58.10;26.80;;;;;;;-141.97;93.67;47872.75;5035105;28;20190;-80
2022/12/09 10:03:59;;;;;;;48.53;22.43;;;;;;;-141.97;92.76;47893.91;5014451;28;20212;-81
2022/12/09 10:06:50;;;;;;;57.90;27.20;;;;;;;-141.97;92.47;47915.03;5012049;28;20189;-82
2022/12/09 10:09:26;;;;;;;74.63;31.40;;;;;;;-141.97;90.92;47897.75;5010538;28;20250;-84
2022/12/09 10:12:29;;;;;;;76.20;32.93;;;;;;;-141.97;91.08;47936.19;5035887;28;20216;-85
2022/12/09 10:15:17;;;;;;;75.27;33.83;;;;;;;-141.97;90.75;47970.78;5039838;28;20185;-85
2022/12/09 10:17:51;;;;;;;59.80;27.27;;;;;;;-141.97;89.96;47876.59;5042828;28;20193;-86
2022/12/09 10:20:20;;;;;;;65.57;29.33;;;;;;;-141.97;89.09;47822.78;5031846;28;20186;-85
2022/12/09 10:22:59;;;;;;;47.33;20.87;;;;;;;-141.97;87.75;47878.53;5030951;28;20186;-85
2022/12/09 10:25:30;;;;;;;48.53;20.90;;;;;;;-141.97;88.12;47807.41;5030383;28;20273;-84
2022/12/09 10:28:04;;;;;;;51.93;22.60;;;;;;;-141.97;87.58;47882.38;5030927;28;20205;-84
2022/12/09 10:30:30;;;;;;;50.77;22.37;;;;;;;-141.97;86.46;47880.44;5018178;28;20621;-84
2022/12/09 10:32:55;;;;;;;47.03;21.50;;;;;;;-141.97;85.96;47818.94;5023678;28;20190;-85
2022/12/09 10:35:27;;;;;;;44.33;20.37;;;;;;;-141.97;86.68;47934.25;5024698;28;20289;-85
2022/12/09 10:37:55;;;;;;;46.10;19.97;;;;;;;-141.97;86.01;48005.38;5010638;28;20212;-83
2022/12/09 10:40:29;;;;;;;42.53;19.20;;;;;;;-141.97;84.90;47903.50;5011178;28;20170;-84
2022/12/09 10:45:48;;;;;;;61.97;27.07;;;;;;;-141.97;86.34;47888.13;5012556;28;20628;-84
2022/12/09 10:48:28;;;;;;;64.40;28.70;;;;;;;-141.97;87.22;47895.81;5013650;28;20655;-84
2022/12/09 10:50:56;;;;;;;70.43;29.67;;;;;;;-141.97;87.52;47811.25;5013096;28;20166;-83
2022/12/09 10:53:22;;;;;;;74.67;30.93;;;;;;;-141.97;87.82;47865.06;5015202;28;20206;-85
2022/12/09 10:55:54;;;;;;;80.93;31.30;;;;;;;-141.97;87.86;47922.72;5016526;28;20301;-85
2022/12/09 10:58:22;;;;;;;70.37;30.67;;;;;;;-141.97;87.76;47888.13;5016158;28;20196;-85
2022/12/09 11:01:09;;;;;;;68.83;30.83;;;;;;;-141.97;87.09;47955.41;5015163;28;20206;-85
2022/12/09 11:03:40;;;;;;;75.47;32.37;;;;;;;-141.97;86.59;47920.81;5017365;28;20647;-85
2022/12/09 11:06:29;;;;;;;78.47;32.10;;;;;;;-141.97;86.78;47907.34;5012851;28;20206;-84